createdAt,value
2018-07-28T00:02:20.884Z,40.80
2018-07-28T00:04:50.741Z,40.60
2018-07-28T00:07:20.596Z,40.90
2018-07-28T00:09:50.438Z,40.50
2018-07-28T00:12:20.303Z,40.80
2018-07-28T00:14:50.167Z,40.60
2018-07-28T00:17:20.034Z,40.40
2018-07-28T00:19:55.158Z,40.40
2018-07-28T00:22:25.003Z,40.80
2018-07-28T00:24:54.893Z,41.00
2018-07-28T00:27:24.800Z,41.10
2018-07-28T00:29:54.657Z,41.10
2018-07-28T00:34:54.046Z,40.90
2018-07-28T00:37:23.930Z,40.60
2018-07-28T00:39:53.791Z,40.60
2018-07-28T00:42:23.654Z,40.50
2018-07-28T00:44:53.518Z,40.90
2018-07-28T00:47:23.406Z,41.20
2018-07-28T00:49:53.280Z,41.30
2018-07-28T00:52:23.146Z,41.30
2018-07-28T00:54:53.011Z,41.30
2018-07-28T00:57:22.879Z,41.50
2018-07-28T00:59:52.730Z,41.50
2018-07-28T01:02:22.606Z,41.70
2018-07-28T01:04:52.462Z,41.60
2018-07-28T01:07:22.313Z,41.60
2018-07-28T01:09:52.391Z,41.80
2018-07-28T01:12:22.258Z,42.40
2018-07-28T01:14:52.119Z,42.00
2018-07-28T01:17:21.986Z,42.10
2018-07-28T01:19:51.839Z,42.20
2018-07-28T01:22:21.752Z,42.10
2018-07-28T01:24:51.611Z,42.00
2018-07-28T01:27:21.482Z,42.00
2018-07-28T01:29:51.350Z,42.00
2018-07-28T01:32:21.220Z,41.70
2018-07-28T01:34:51.078Z,41.90
2018-07-28T01:37:20.929Z,41.90
2018-07-28T01:39:50.794Z,42.20
2018-07-28T01:42:27.158Z,42.30
2018-07-28T01:44:56.982Z,42.70
2018-07-28T01:47:26.898Z,42.60
2018-07-28T01:49:56.753Z,42.60
2018-07-28T01:52:26.642Z,42.70
2018-07-28T01:54:56.497Z,42.70
2018-07-28T01:57:26.354Z,42.60
2018-07-28T01:59:56.282Z,42.80
2018-07-28T02:02:26.233Z,42.90
2018-07-28T02:04:56.171Z,43.00
2018-07-28T02:07:26.031Z,42.70
2018-07-28T02:09:55.906Z,42.80
2018-07-28T02:12:25.789Z,42.80
2018-07-28T02:14:55.638Z,42.70
2018-07-28T02:17:25.494Z,42.70
2018-07-28T02:19:55.346Z,42.70
2018-07-28T02:22:25.198Z,42.90
2018-07-28T02:24:55.079Z,43.20
2018-07-28T02:27:24.945Z,43.20
2018-07-28T02:29:54.802Z,43.30
2018-07-28T02:32:24.678Z,43.40
2018-07-28T02:34:54.551Z,43.20
2018-07-28T02:37:24.403Z,43.40
2018-07-28T02:39:54.285Z,43.30
2018-07-28T02:42:24.144Z,43.40
2018-07-28T02:44:54.003Z,43.50
2018-07-28T02:47:23.848Z,43.60
2018-07-28T02:49:53.771Z,43.60
2018-07-28T02:52:23.656Z,43.60
2018-07-28T02:54:53.570Z,43.80
2018-07-28T02:57:23.498Z,43.90
2018-07-28T02:59:53.355Z,43.80
2018-07-28T03:02:23.218Z,43.90
2018-07-28T03:04:53.083Z,43.90
2018-07-28T03:07:22.963Z,44.00
2018-07-28T03:09:53.234Z,44.20
2018-07-28T03:12:23.095Z,44.90
2018-07-28T03:14:52.940Z,44.30
2018-07-28T03:17:22.807Z,44.30
2018-07-28T03:19:52.680Z,44.50
2018-07-28T03:22:22.534Z,44.30
2018-07-28T03:24:52.392Z,44.30
2018-07-28T03:27:22.254Z,44.40
2018-07-28T03:29:52.111Z,44.40
2018-07-28T03:32:21.981Z,44.40
2018-07-28T03:34:51.838Z,44.50
2018-07-28T03:37:21.703Z,44.60
2018-07-28T03:39:51.545Z,44.50
2018-07-28T03:42:21.398Z,44.60
2018-07-28T03:44:51.260Z,44.70
2018-07-28T03:47:21.110Z,44.60
2018-07-28T03:52:20.566Z,44.70
2018-07-28T03:54:50.425Z,44.70
2018-07-28T03:57:20.286Z,44.80
2018-07-28T03:59:50.175Z,45.00
2018-07-28T04:02:20.035Z,45.10
2018-07-28T04:04:49.891Z,45.20
2018-07-28T04:07:19.753Z,45.10
2018-07-28T04:09:49.615Z,45.00
2018-07-28T04:12:19.470Z,45.10
2018-07-28T04:14:49.310Z,45.00
2018-07-28T04:17:19.187Z,44.90
2018-07-28T04:19:49.047Z,44.90
2018-07-28T04:22:18.911Z,44.80
2018-07-28T04:24:48.874Z,44.80
2018-07-28T04:27:18.742Z,44.70
2018-07-28T04:29:48.607Z,45.00
2018-07-28T04:32:18.471Z,45.20
2018-07-28T04:34:48.339Z,45.20
2018-07-28T04:37:18.195Z,45.40
2018-07-28T04:39:48.044Z,45.60
2018-07-28T04:42:17.910Z,45.40
2018-07-28T04:44:47.772Z,45.50
2018-07-28T04:47:17.638Z,45.70
2018-07-28T04:49:47.491Z,45.60
2018-07-28T04:52:17.350Z,45.60
2018-07-28T04:54:47.459Z,45.60
2018-07-28T04:57:17.326Z,45.70
2018-07-28T04:59:47.178Z,45.80
2018-07-28T05:02:17.055Z,45.90
2018-07-28T05:04:46.910Z,45.80
2018-07-28T05:07:16.812Z,46.00
2018-07-28T05:09:46.637Z,45.80
2018-07-28T05:12:16.511Z,45.80
2018-07-28T05:14:46.514Z,46.00
2018-07-28T05:17:16.382Z,45.90
2018-07-28T05:19:46.238Z,46.00
2018-07-28T05:22:16.113Z,46.10
2018-07-28T05:24:45.961Z,46.30
2018-07-28T05:27:15.858Z,46.50
2018-07-28T05:29:45.778Z,46.80
2018-07-28T05:32:15.645Z,46.80
2018-07-28T05:34:45.515Z,46.80
2018-07-28T05:37:15.441Z,46.80
2018-07-28T05:39:45.275Z,46.80
2018-07-28T05:42:15.125Z,47.60
2018-07-28T05:44:44.991Z,47.10
2018-07-28T05:47:14.855Z,47.70
2018-07-28T05:49:44.715Z,47.10
2018-07-28T05:52:14.603Z,46.90
2018-07-28T05:54:44.474Z,47.00
2018-07-28T05:57:14.342Z,46.90
2018-07-28T05:59:44.214Z,47.00
2018-07-28T06:02:15.897Z,47.10
2018-07-28T06:04:45.737Z,47.00
2018-07-28T06:07:15.583Z,47.30
2018-07-28T06:09:45.506Z,47.40
2018-07-28T06:12:15.373Z,47.30
2018-07-28T06:14:45.238Z,47.10
2018-07-28T06:17:15.103Z,47.00
2018-07-28T06:19:44.960Z,47.10
2018-07-28T06:22:14.822Z,47.10
2018-07-28T06:24:44.726Z,47.40
2018-07-28T06:27:14.587Z,47.10
2018-07-28T06:29:44.456Z,46.90
2018-07-28T06:32:14.326Z,46.80
2018-07-28T06:34:44.184Z,46.80
2018-07-28T06:37:14.064Z,47.20
2018-07-28T06:39:44.235Z,46.80
2018-07-28T06:42:14.084Z,46.60
2018-07-28T06:44:43.962Z,46.90
2018-07-28T06:47:13.905Z,47.10
2018-07-28T06:49:43.756Z,47.00
2018-07-28T06:52:13.614Z,46.30
2018-07-28T06:54:43.480Z,46.00
2018-07-28T06:57:13.345Z,45.90
2018-07-28T06:59:43.199Z,45.70
2018-07-28T07:02:13.070Z,45.90
2018-07-28T07:04:43.048Z,45.80
2018-07-28T07:07:12.879Z,45.40
2018-07-28T07:09:42.746Z,45.60
2018-07-28T07:12:12.656Z,45.70
2018-07-28T07:14:42.544Z,45.70
2018-07-28T07:17:12.431Z,45.60
2018-07-28T07:19:42.310Z,45.40
2018-07-28T07:22:12.175Z,45.00
2018-07-28T07:24:42.096Z,45.10
2018-07-28T07:27:11.906Z,45.40
2018-07-28T07:29:41.786Z,45.40
2018-07-28T07:32:11.639Z,45.10
2018-07-28T07:34:41.506Z,45.10
2018-07-28T07:37:11.358Z,45.20
2018-07-28T07:39:41.238Z,45.00
2018-07-28T07:42:11.111Z,45.10
2018-07-28T07:44:41.019Z,44.70
2018-07-28T07:47:10.889Z,45.20
2018-07-28T07:49:40.762Z,45.10
2018-07-28T07:52:10.622Z,45.80
2018-07-28T07:54:40.618Z,45.50
2018-07-28T07:57:10.946Z,45.40
2018-07-28T07:59:41.102Z,44.70
2018-07-28T08:02:10.962Z,44.80
2018-07-28T08:04:40.850Z,44.90
2018-07-28T08:07:10.688Z,44.70
2018-07-28T08:09:41.071Z,44.60
2018-07-28T08:12:10.939Z,44.80
2018-07-28T08:14:40.803Z,44.70
2018-07-28T08:17:10.682Z,44.80
2018-07-28T08:19:40.537Z,44.50
2018-07-28T08:22:10.402Z,45.00
2018-07-28T08:24:40.262Z,44.00
2018-07-28T08:27:10.135Z,44.30
2018-07-28T08:29:40.002Z,44.50
2018-07-28T08:32:09.849Z,44.40
2018-07-28T08:34:39.702Z,44.30
2018-07-28T08:37:09.587Z,44.40
2018-07-28T08:39:39.442Z,44.40
2018-07-28T08:42:09.301Z,44.50
2018-07-28T08:44:39.251Z,44.20
2018-07-28T08:47:09.111Z,44.50
2018-07-28T08:49:39.058Z,44.30
2018-07-28T08:52:08.855Z,43.30
2018-07-28T08:54:38.832Z,43.90
2018-07-28T08:57:08.650Z,43.70
2018-07-28T08:59:38.519Z,44.00
2018-07-28T09:02:08.413Z,44.00
2018-07-28T09:04:38.275Z,44.10
2018-07-28T09:07:08.141Z,44.40
2018-07-28T09:09:38.091Z,44.10
2018-07-28T09:12:07.936Z,44.40
2018-07-28T09:14:37.864Z,44.80
2018-07-28T09:17:07.774Z,44.90
2018-07-28T09:19:37.615Z,45.00
2018-07-28T09:22:07.500Z,45.20
2018-07-28T09:24:37.350Z,44.60
2018-07-28T09:27:07.227Z,44.80
2018-07-28T09:29:37.097Z,45.10
2018-07-28T09:32:07.158Z,44.80
2018-07-28T09:34:37.031Z,45.10
2018-07-28T09:37:06.959Z,44.80
2018-07-28T09:39:36.807Z,44.80
2018-07-28T09:42:06.698Z,44.70
2018-07-28T09:44:36.559Z,44.70
2018-07-28T09:47:06.527Z,44.80
2018-07-28T09:49:36.310Z,44.40
2018-07-28T09:52:06.173Z,43.80
2018-07-28T09:54:36.034Z,43.80
2018-07-28T09:57:05.895Z,44.30
2018-07-28T09:59:35.830Z,44.70
2018-07-28T10:02:05.698Z,44.10
2018-07-28T10:04:36.409Z,44.10
2018-07-28T10:07:06.275Z,44.10
2018-07-28T10:09:36.132Z,44.10
2018-07-28T10:12:12.790Z,44.10
2018-07-28T10:14:42.647Z,44.20
2018-07-28T10:17:12.518Z,44.30
2018-07-28T10:19:42.371Z,44.20
2018-07-28T10:22:12.242Z,44.30
2018-07-28T10:24:42.141Z,44.00
2018-07-28T10:27:11.974Z,44.00
2018-07-28T10:29:41.843Z,44.00
2018-07-28T10:32:11.722Z,43.70
2018-07-28T10:34:41.574Z,43.90
2018-07-28T10:37:11.442Z,43.70
2018-07-28T10:39:41.354Z,43.30
2018-07-28T10:42:11.224Z,43.40
2018-07-28T10:44:41.095Z,43.20
2018-07-28T10:47:10.951Z,42.80
2018-07-28T10:49:40.802Z,42.30
2018-07-28T10:52:10.671Z,42.20
2018-07-28T10:54:40.526Z,42.10
2018-07-28T10:57:10.407Z,43.00
2018-07-28T10:59:43.286Z,42.50
2018-07-28T11:02:13.150Z,42.70
2018-07-28T11:04:43.025Z,42.70
2018-07-28T11:07:13.722Z,42.70
2018-07-28T11:09:43.599Z,42.40
2018-07-28T11:12:13.480Z,42.30
2018-07-28T11:14:43.331Z,42.90
2018-07-28T11:17:13.250Z,42.70
2018-07-28T11:19:43.100Z,42.70
2018-07-28T11:22:12.987Z,42.50
2018-07-28T11:24:42.847Z,42.40
2018-07-28T11:27:12.710Z,41.70
2018-07-28T11:32:29.138Z,42.60
2018-07-28T11:37:51.340Z,42.60
2018-07-28T11:40:38.322Z,42.80
2018-07-28T11:43:25.825Z,42.80
2018-07-28T11:45:55.722Z,42.30
2018-07-28T11:48:25.558Z,41.90
2018-07-28T11:50:55.518Z,42.20
2018-07-28T11:53:25.399Z,42.00
2018-07-28T11:55:55.271Z,42.30
2018-07-28T11:58:25.393Z,41.80
2018-07-28T12:00:55.115Z,42.00
2018-07-28T12:03:25.124Z,41.30
2018-07-28T12:05:55.011Z,41.50
2018-07-28T12:08:24.874Z,41.30
2018-07-28T12:10:54.727Z,40.80
2018-07-28T12:13:24.587Z,40.80
2018-07-28T12:15:54.446Z,41.40
2018-07-28T12:18:24.346Z,40.60
2018-07-28T12:20:54.262Z,41.20
2018-07-28T12:23:24.134Z,40.90
2018-07-28T12:25:53.981Z,41.20
2018-07-28T12:28:23.852Z,41.10
2018-07-28T12:30:53.790Z,41.30
2018-07-28T12:33:23.657Z,41.40
2018-07-28T12:35:53.514Z,41.50
2018-07-28T12:38:23.378Z,41.40
2018-07-28T12:40:53.238Z,42.20
2018-07-28T12:43:23.091Z,41.60
2018-07-28T12:45:52.951Z,41.40
2018-07-28T12:48:22.814Z,41.60
2018-07-28T12:50:52.813Z,41.60
2018-07-28T12:53:22.675Z,41.90
2018-07-28T12:55:52.530Z,41.30
2018-07-28T12:58:22.398Z,41.30
2018-07-28T13:00:52.249Z,41.30
2018-07-28T13:03:22.191Z,41.60
2018-07-28T13:05:52.060Z,40.90
2018-07-28T13:08:22.042Z,39.90
2018-07-28T13:10:51.927Z,39.90
2018-07-28T13:13:21.781Z,39.70
2018-07-28T13:15:51.643Z,39.40
2018-07-28T13:18:21.502Z,39.90
2018-07-28T13:20:51.362Z,39.80
2018-07-28T13:23:21.220Z,40.30
2018-07-28T13:25:51.095Z,39.80
2018-07-28T13:28:20.958Z,39.80
2018-07-28T13:30:50.858Z,39.70
2018-07-28T13:33:20.706Z,38.90
2018-07-28T13:35:50.558Z,39.50
2018-07-28T13:38:20.406Z,39.40
2018-07-28T13:40:50.273Z,40.00
2018-07-28T13:43:20.118Z,39.00
2018-07-28T13:45:50.018Z,38.80
2018-07-28T13:48:19.876Z,39.30
2018-07-28T13:50:49.754Z,39.70
2018-07-28T13:53:19.637Z,40.00
2018-07-28T13:55:49.483Z,39.80
2018-07-28T13:58:19.350Z,40.20
2018-07-28T14:00:49.211Z,40.40
2018-07-28T14:03:19.199Z,39.60
2018-07-28T14:05:49.061Z,39.90
2018-07-28T14:08:18.934Z,40.10
2018-07-28T14:10:48.811Z,39.80
2018-07-28T14:13:18.677Z,40.00
2018-07-28T14:15:48.549Z,40.00
2018-07-28T14:18:18.488Z,40.30
2018-07-28T14:20:48.307Z,40.40
2018-07-28T14:23:18.211Z,40.40
2018-07-28T14:25:48.024Z,39.70
2018-07-28T14:28:17.887Z,39.90
2018-07-28T14:30:47.994Z,40.30
2018-07-28T14:33:17.883Z,39.90
2018-07-28T14:35:47.774Z,39.70
2018-07-28T14:38:17.647Z,39.60
2018-07-28T14:40:47.518Z,40.20
2018-07-28T14:43:24.130Z,40.10
2018-07-28T14:45:54.000Z,40.20
2018-07-28T14:48:23.851Z,40.50
2018-07-28T14:50:54.191Z,41.20
2018-07-28T14:53:24.068Z,41.60
2018-07-28T14:55:54.361Z,41.60
2018-07-28T14:58:24.253Z,41.50
2018-07-28T15:00:54.138Z,41.50
2018-07-28T15:03:24.006Z,41.70
2018-07-28T15:05:53.925Z,41.20
2018-07-28T15:08:23.831Z,41.30
2018-07-28T15:10:53.727Z,40.90
2018-07-28T15:13:23.613Z,41.50
2018-07-28T15:15:53.657Z,41.50
2018-07-28T15:18:23.543Z,41.40
2018-07-28T15:20:53.418Z,41.80
2018-07-28T15:23:23.302Z,41.80
2018-07-28T15:25:53.202Z,42.00
2018-07-28T15:28:23.083Z,42.10
2018-07-28T15:30:53.026Z,42.00
2018-07-28T15:33:22.881Z,42.10
2018-07-28T15:35:52.747Z,41.70
2018-07-28T15:38:22.598Z,41.60
2018-07-28T15:40:52.463Z,41.40
2018-07-28T15:43:22.318Z,41.10
2018-07-28T15:45:52.213Z,40.90
2018-07-28T15:48:22.166Z,40.90
2018-07-28T15:50:52.157Z,41.30
2018-07-28T15:53:22.046Z,40.50
2018-07-28T15:55:51.918Z,40.50
2018-07-28T15:58:21.823Z,40.60
2018-07-28T16:00:51.679Z,40.70
2018-07-28T16:03:21.535Z,40.80
2018-07-28T16:05:51.451Z,40.20
2018-07-28T16:10:50.813Z,40.40
2018-07-28T16:13:20.736Z,40.60
2018-07-28T16:15:50.667Z,40.80
2018-07-28T16:18:20.516Z,40.80
2018-07-28T16:20:50.373Z,40.70
2018-07-28T16:23:20.238Z,40.70
2018-07-28T16:25:50.108Z,40.90
2018-07-28T16:28:19.978Z,40.30
2018-07-28T16:30:49.830Z,40.00
2018-07-28T16:33:19.722Z,40.40
2018-07-28T16:35:49.761Z,40.60
2018-07-28T16:38:19.699Z,40.30
2018-07-28T16:40:49.473Z,40.10
2018-07-28T16:43:19.347Z,40.00
2018-07-28T16:45:49.230Z,40.50
2018-07-28T16:48:19.094Z,40.40
2018-07-28T16:50:48.959Z,40.10
2018-07-28T16:53:18.826Z,40.30
2018-07-28T16:55:48.686Z,40.20
2018-07-28T16:58:18.541Z,40.30
2018-07-28T17:00:48.396Z,40.50
2018-07-28T17:03:18.361Z,40.40
2018-07-28T17:05:48.338Z,40.60
2018-07-28T17:08:18.218Z,40.40
2018-07-28T17:10:48.118Z,40.40
2018-07-28T17:13:18.359Z,40.70
2018-07-28T17:15:48.219Z,41.00
2018-07-28T17:18:18.074Z,41.00
2018-07-28T17:20:47.930Z,40.70
2018-07-28T17:23:17.790Z,40.90
2018-07-28T17:25:47.662Z,40.90
2018-07-28T17:28:17.625Z,40.90
2018-07-28T17:30:47.621Z,41.00
2018-07-28T17:33:17.421Z,41.10
2018-07-28T17:35:47.302Z,41.40
2018-07-28T17:38:17.253Z,40.90
2018-07-28T17:40:47.136Z,41.10
2018-07-28T17:43:17.010Z,41.30
2018-07-28T17:45:46.954Z,41.20
2018-07-28T17:48:16.838Z,41.10
2018-07-28T17:50:46.727Z,41.30
2018-07-28T17:53:16.671Z,41.40
2018-07-28T17:55:46.605Z,41.30
2018-07-28T18:00:46.014Z,41.20
2018-07-28T18:03:15.918Z,41.60
2018-07-28T18:05:52.179Z,41.40
2018-07-28T18:08:22.074Z,41.60
2018-07-28T18:10:51.942Z,41.30
2018-07-28T18:13:21.878Z,41.30
2018-07-28T18:15:51.898Z,41.50
2018-07-28T18:18:21.839Z,41.40
2018-07-28T18:20:52.810Z,41.40
2018-07-28T18:23:22.731Z,41.50
2018-07-28T18:25:52.895Z,41.70
2018-07-28T18:28:22.779Z,41.60
2018-07-28T18:30:52.647Z,41.60
2018-07-28T18:33:22.506Z,41.60
2018-07-28T18:35:52.583Z,41.70
2018-07-28T18:38:22.463Z,41.50
2018-07-28T18:40:52.321Z,41.80
2018-07-28T18:43:22.186Z,42.00
2018-07-28T18:48:21.538Z,41.90
2018-07-28T18:50:51.398Z,41.80
2018-07-28T18:53:21.270Z,41.90
2018-07-28T18:55:56.547Z,42.00
2018-07-28T18:58:26.466Z,42.10
2018-07-28T19:00:56.306Z,42.10
2018-07-28T19:03:26.180Z,42.10
2018-07-28T19:05:56.024Z,42.00
2018-07-28T19:08:25.899Z,42.00
2018-07-28T19:10:55.754Z,42.30
2018-07-28T19:13:30.899Z,42.30
2018-07-28T19:16:00.747Z,42.20
2018-07-28T19:18:35.915Z,42.10
2018-07-28T19:23:46.184Z,42.50
2018-07-28T19:26:16.006Z,42.20
2018-07-28T19:29:59.126Z,42.30
2018-07-28T19:32:29.001Z,42.20
2018-07-28T19:34:58.866Z,42.40
2018-07-28T19:37:29.775Z,42.60
2018-07-28T19:39:59.666Z,42.80
2018-07-28T19:42:34.890Z,42.90
2018-07-28T19:45:04.745Z,42.80
2018-07-28T19:47:34.606Z,42.70
2018-07-28T19:50:04.483Z,42.90
2018-07-28T19:52:34.351Z,42.90
2018-07-28T19:55:04.235Z,43.20
2018-07-28T19:57:34.086Z,43.40
2018-07-28T20:00:04.371Z,43.00
2018-07-28T20:02:34.223Z,43.20
2018-07-28T20:05:04.433Z,43.40
2018-07-28T20:07:34.282Z,43.50
2018-07-28T20:10:04.172Z,43.50
2018-07-28T20:12:34.038Z,43.50
2018-07-28T20:15:03.975Z,43.60
2018-07-28T20:17:34.106Z,43.50
2018-07-28T20:20:04.026Z,43.40
2018-07-28T20:22:33.890Z,43.30
2018-07-28T20:25:03.840Z,43.40
2018-07-28T20:27:33.706Z,43.60
2018-07-28T20:30:03.570Z,43.80
2018-07-28T20:32:33.478Z,43.80
2018-07-28T20:35:03.370Z,43.80
2018-07-28T20:37:33.247Z,43.80
2018-07-28T20:40:03.146Z,43.80
2018-07-28T20:42:33.014Z,43.70
2018-07-28T20:45:02.897Z,43.80
2018-07-28T20:47:32.788Z,44.00
2018-07-28T20:50:02.683Z,44.00
2018-07-28T20:52:32.571Z,44.20
2018-07-28T20:55:02.463Z,44.10
2018-07-28T20:57:32.343Z,44.20
2018-07-28T21:00:02.226Z,44.70
2018-07-28T21:02:32.118Z,44.30
2018-07-28T21:05:02.008Z,44.30
2018-07-28T21:07:31.906Z,44.40
2018-07-28T21:10:01.817Z,44.40
2018-07-28T21:12:31.662Z,44.40
2018-07-28T21:15:01.543Z,44.40
2018-07-28T21:17:31.418Z,44.40
2018-07-28T21:20:01.314Z,44.50
2018-07-28T21:22:31.210Z,44.60
2018-07-28T21:25:01.113Z,45.00
2018-07-28T21:27:31.008Z,45.00
2018-07-28T21:30:00.926Z,44.90
2018-07-28T21:32:30.803Z,44.70
2018-07-28T21:35:00.689Z,44.70
2018-07-28T21:37:30.529Z,44.90
2018-07-28T21:40:00.414Z,44.90
2018-07-28T21:42:30.300Z,44.90
2018-07-28T21:45:00.154Z,44.90
2018-07-28T21:47:30.063Z,45.00
2018-07-28T21:49:59.965Z,45.20
2018-07-28T21:52:29.866Z,45.10
2018-07-28T21:54:59.769Z,45.20
2018-07-28T21:57:29.654Z,45.30
2018-07-28T21:59:59.574Z,45.40
2018-07-28T22:02:30.003Z,45.30
2018-07-28T22:04:59.919Z,45.20
2018-07-28T22:07:29.798Z,45.10
2018-07-28T22:10:00.173Z,45.10
2018-07-28T22:12:30.075Z,45.10
2018-07-28T22:14:59.968Z,45.10
2018-07-28T22:17:29.863Z,45.00
2018-07-28T22:19:59.764Z,44.90
2018-07-28T22:22:29.656Z,45.00
2018-07-28T22:24:59.563Z,45.10
2018-07-28T22:27:29.483Z,45.00
2018-07-28T22:29:59.361Z,45.00
2018-07-28T22:32:29.286Z,45.00
2018-07-28T22:34:59.139Z,45.20
2018-07-28T22:37:29.006Z,45.20
2018-07-28T22:39:58.874Z,45.10
2018-07-28T22:42:51.850Z,45.10
2018-07-28T22:45:21.735Z,45.20
2018-07-28T22:47:51.588Z,45.20
2018-07-28T22:50:21.451Z,45.30
2018-07-28T22:52:51.295Z,45.20
2018-07-28T22:55:21.163Z,45.30
2018-07-28T22:57:51.023Z,45.30
2018-07-28T23:00:20.872Z,45.30
2018-07-28T23:02:50.726Z,45.30
2018-07-28T23:05:20.599Z,45.60
2018-07-28T23:07:50.486Z,45.20
2018-07-28T23:10:20.342Z,45.40
2018-07-28T23:12:50.221Z,45.30
2018-07-28T23:15:20.079Z,45.20
2018-07-28T23:17:49.961Z,45.30
2018-07-28T23:20:19.819Z,45.60
2018-07-28T23:22:49.714Z,45.40
2018-07-28T23:25:19.574Z,45.40
2018-07-28T23:27:49.503Z,45.50
2018-07-28T23:30:19.329Z,45.70
2018-07-28T23:32:49.195Z,45.80
2018-07-28T23:35:19.081Z,45.60
2018-07-28T23:37:48.934Z,45.60
2018-07-28T23:40:18.807Z,45.60
2018-07-28T23:42:48.682Z,45.60
2018-07-28T23:45:18.545Z,46.40
2018-07-28T23:47:48.413Z,45.80
2018-07-28T23:50:18.282Z,45.90
2018-07-28T23:52:48.150Z,45.90
2018-07-28T23:55:18.008Z,46.10
2018-07-28T23:57:47.870Z,46.10
